createdAt,value
2023-01-19T00:01:31.356Z,4.40
2023-01-19T00:04:33.501Z,5.05
2023-01-19T00:07:35.632Z,5.87
2023-01-19T00:10:37.795Z,4.10
2023-01-19T00:13:40.636Z,5.07
2023-01-19T00:16:43.525Z,4.50
2023-01-19T00:23:04.915Z,5.05
2023-01-19T00:26:08.895Z,4.53
2023-01-19T00:29:29.392Z,3.97
2023-01-19T00:36:23.083Z,5.13
2023-01-19T00:39:31.258Z,3.30
2023-01-19T00:42:44.395Z,4.13
2023-01-19T00:45:58.456Z,3.65
2023-01-19T00:49:09.194Z,4.30
2023-01-19T00:52:33.036Z,4.40
2023-01-19T00:56:00.273Z,5.10
2023-01-19T00:59:16.994Z,4.68
2023-01-19T01:02:39.019Z,5.55
2023-01-19T01:05:44.016Z,4.60
2023-01-19T01:09:00.840Z,5.07
2023-01-19T01:12:03.365Z,5.17
2023-01-19T01:15:10.552Z,5.38
2023-01-19T01:18:13.039Z,5.20
2023-01-19T01:21:18.490Z,5.40
2023-01-19T01:24:21.671Z,6.28
2023-01-19T01:27:26.528Z,6.32
2023-01-19T01:30:29.424Z,6.72
2023-01-19T01:33:40.759Z,5.78
2023-01-19T01:36:44.668Z,7.30
2023-01-19T01:40:01.343Z,6.35
2023-01-19T01:43:04.268Z,5.73
2023-01-19T01:46:07.033Z,5.63
2023-01-19T01:49:16.106Z,6.05
2023-01-19T01:52:18.740Z,5.03
2023-01-19T01:55:22.842Z,5.55
2023-01-19T02:02:00.437Z,5.65
2023-01-19T02:05:07.516Z,5.72
2023-01-19T02:08:38.493Z,6.13
2023-01-19T02:11:59.760Z,6.90
2023-01-19T02:15:01.975Z,5.00
2023-01-19T02:18:04.242Z,6.22
2023-01-19T02:21:26.616Z,4.55
2023-01-19T02:24:29.311Z,4.47
2023-01-19T02:27:32.433Z,4.80
2023-01-19T02:30:35.950Z,4.57
2023-01-19T02:33:38.361Z,3.63
2023-01-19T02:36:49.150Z,3.13
2023-01-19T02:40:01.956Z,4.32
2023-01-19T02:43:05.186Z,3.53
2023-01-19T02:46:07.327Z,3.50
2023-01-19T02:49:09.549Z,3.78
2023-01-19T02:52:17.778Z,3.20
2023-01-19T02:55:22.368Z,3.07
2023-01-19T02:58:31.709Z,3.58
2023-01-19T03:02:12.906Z,3.55
2023-01-19T03:05:24.869Z,3.40
2023-01-19T03:08:52.437Z,3.80
2023-01-19T03:12:10.068Z,3.33
2023-01-19T03:15:22.727Z,2.95
2023-01-19T03:18:26.788Z,3.20
2023-01-19T03:21:29.850Z,2.53
2023-01-19T03:24:36.878Z,2.63
2023-01-19T03:27:40.946Z,3.30
2023-01-19T03:30:47.844Z,2.72
2023-01-19T03:33:51.808Z,2.55
2023-01-19T03:36:55.646Z,2.78
2023-01-19T03:39:57.872Z,3.33
2023-01-19T03:43:01.567Z,2.53
2023-01-19T03:46:05.203Z,2.92
2023-01-19T03:49:08.396Z,3.07
2023-01-19T03:52:10.687Z,1.95
2023-01-19T03:55:13.671Z,2.60
2023-01-19T03:58:15.846Z,2.80
2023-01-19T04:01:22.633Z,2.28
2023-01-19T04:04:25.516Z,4.03
2023-01-19T04:07:28.496Z,2.17
2023-01-19T04:10:30.610Z,2.28
2023-01-19T04:13:32.811Z,3.00
2023-01-19T04:16:35.217Z,2.28
2023-01-19T04:19:37.372Z,2.60
2023-01-19T04:22:39.596Z,2.83
2023-01-19T04:25:41.759Z,4.00
2023-01-19T04:28:43.964Z,2.77
2023-01-19T04:31:46.366Z,2.10
2023-01-19T04:34:48.525Z,2.17
2023-01-19T04:37:50.758Z,2.42
2023-01-19T04:40:53.434Z,3.38
2023-01-19T04:43:55.552Z,2.00
2023-01-19T04:46:57.776Z,1.80
2023-01-19T04:49:59.971Z,1.50
2023-01-19T04:53:02.560Z,1.58
2023-01-19T04:56:05.221Z,2.28
2023-01-19T04:59:07.372Z,1.50
2023-01-19T05:02:09.682Z,1.42
2023-01-19T05:05:11.975Z,1.50
2023-01-19T05:08:14.166Z,1.30
2023-01-19T05:11:16.318Z,1.50
2023-01-19T05:14:18.874Z,1.75
2023-01-19T05:17:21.061Z,2.47
2023-01-19T05:20:23.911Z,1.30
2023-01-19T05:23:26.045Z,1.75
2023-01-19T05:26:28.168Z,1.45
2023-01-19T05:29:30.286Z,1.40
2023-01-19T05:32:32.649Z,1.10
2023-01-19T05:35:36.646Z,1.60
2023-01-19T05:38:38.903Z,3.47
2023-01-19T05:41:42.078Z,1.85
2023-01-19T05:44:44.406Z,1.30
2023-01-19T05:47:46.771Z,1.48
2023-01-19T05:50:49.625Z,1.13
2023-01-19T05:53:51.913Z,1.70
2023-01-19T05:56:54.089Z,1.52
2023-01-19T05:59:56.284Z,1.20
2023-01-19T06:03:00.861Z,1.15
2023-01-19T06:06:03.798Z,1.42
2023-01-19T06:09:07.833Z,1.85
2023-01-19T06:12:10.049Z,1.33
2023-01-19T06:15:14.435Z,1.65
2023-01-19T06:18:16.567Z,1.20
2023-01-19T06:21:18.686Z,0.90
2023-01-19T06:24:20.908Z,1.25
2023-01-19T06:27:23.149Z,1.05
2023-01-19T06:30:25.370Z,2.50
2023-01-19T06:33:28.123Z,1.30
2023-01-19T06:36:30.325Z,1.75
2023-01-19T06:39:33.095Z,1.10
2023-01-19T06:42:37.847Z,1.20
2023-01-19T06:45:40.050Z,1.17
2023-01-19T06:48:42.207Z,1.10
2023-01-19T06:51:44.574Z,0.93
2023-01-19T06:54:46.999Z,1.60
2023-01-19T06:57:49.168Z,1.58
2023-01-19T07:00:51.878Z,2.20
2023-01-19T07:03:58.615Z,1.58
2023-01-19T07:07:02.337Z,1.50
2023-01-19T07:10:05.093Z,2.05
2023-01-19T07:13:13.899Z,2.60
2023-01-19T07:16:34.383Z,2.03
2023-01-19T07:19:36.868Z,3.10
2023-01-19T07:22:39.341Z,2.83
2023-01-19T07:25:46.246Z,2.47
2023-01-19T07:28:48.950Z,2.70
2023-01-19T07:31:54.357Z,2.53
2023-01-19T07:34:56.627Z,3.80
2023-01-19T07:37:59.068Z,3.55
2023-01-19T07:41:03.599Z,2.65
2023-01-19T07:44:05.732Z,3.15
2023-01-19T07:47:11.212Z,2.95
2023-01-19T07:50:13.971Z,4.13
2023-01-19T07:53:17.011Z,2.60
2023-01-19T07:56:22.836Z,3.90
2023-01-19T07:59:25.090Z,3.00
2023-01-19T08:02:27.970Z,4.13
2023-01-19T08:05:33.514Z,2.15
2023-01-19T08:08:37.543Z,2.47
2023-01-19T08:11:42.239Z,2.67
2023-01-19T08:14:44.451Z,3.78
2023-01-19T08:17:46.684Z,3.38
2023-01-19T08:20:50.937Z,3.42
2023-01-19T08:23:55.944Z,3.33
2023-01-19T08:26:59.890Z,3.63
2023-01-19T08:30:02.346Z,2.67
2023-01-19T08:33:08.026Z,3.93
2023-01-19T08:36:10.304Z,2.85
2023-01-19T08:39:13.215Z,7.22
2023-01-19T08:42:19.599Z,4.32
2023-01-19T08:45:21.767Z,3.42
2023-01-19T08:48:24.165Z,5.07
2023-01-19T08:51:26.329Z,2.72
2023-01-19T08:54:28.704Z,3.30
2023-01-19T08:57:30.966Z,4.78
2023-01-19T09:00:34.367Z,3.67
2023-01-19T09:03:43.751Z,3.80
2023-01-19T09:06:46.196Z,3.60
2023-01-19T09:09:48.333Z,3.88
2023-01-19T09:12:54.136Z,4.53
2023-01-19T09:15:57.762Z,4.65
2023-01-19T09:19:00.434Z,4.57
2023-01-19T09:22:04.922Z,4.88
2023-01-19T09:25:09.688Z,3.80
2023-01-19T09:28:14.618Z,4.75
2023-01-19T09:31:20.084Z,5.45
2023-01-19T09:34:23.153Z,4.67
2023-01-19T09:37:25.288Z,6.68
2023-01-19T09:40:28.250Z,4.18
2023-01-19T09:43:36.795Z,4.07
2023-01-19T09:46:45.306Z,5.43
2023-01-19T09:49:51.503Z,4.72
2023-01-19T09:53:31.660Z,6.00
2023-01-19T09:56:34.893Z,6.40
2023-01-19T09:59:38.726Z,6.53
2023-01-19T10:02:58.706Z,7.60
2023-01-19T10:06:06.172Z,7.00
2023-01-19T10:09:25.483Z,5.78
2023-01-19T10:12:42.947Z,6.13
2023-01-19T10:16:14.968Z,8.30
2023-01-19T10:19:21.808Z,7.93
2023-01-19T10:22:26.240Z,8.80
2023-01-19T10:25:28.760Z,9.75
2023-01-19T10:28:31.065Z,11.00
2023-01-19T10:31:36.099Z,7.97
2023-01-19T10:34:39.800Z,9.93
2023-01-19T10:37:44.801Z,10.50
2023-01-19T10:41:16.329Z,11.50
2023-01-19T10:44:26.745Z,11.82
2023-01-19T10:47:43.116Z,11.73
2023-01-19T10:50:45.865Z,11.15
2023-01-19T10:54:09.010Z,13.48
2023-01-19T10:57:17.594Z,9.75
2023-01-19T11:00:41.280Z,10.23
2023-01-19T11:03:44.571Z,12.05
2023-01-19T11:06:47.936Z,15.18
2023-01-19T11:10:12.554Z,11.20
2023-01-19T11:13:17.933Z,12.73
2023-01-19T11:16:23.166Z,14.18
2023-01-19T11:19:28.400Z,8.95
2023-01-19T11:22:33.121Z,12.98
2023-01-19T11:25:37.421Z,11.30
2023-01-19T11:28:45.057Z,10.93
2023-01-19T11:31:48.205Z,10.53
2023-01-19T11:34:50.669Z,7.47
2023-01-19T11:38:23.115Z,8.50
2023-01-19T11:41:33.633Z,9.67
2023-01-19T11:44:48.077Z,9.43
2023-01-19T11:47:52.374Z,8.50
2023-01-19T11:50:54.980Z,10.18
2023-01-19T11:54:01.696Z,10.77
2023-01-19T11:57:22.374Z,9.48
2023-01-19T12:01:21.179Z,9.98
2023-01-19T12:04:38.467Z,9.70
2023-01-19T12:07:45.204Z,10.30
2023-01-19T12:10:48.245Z,11.52
2023-01-19T12:13:58.013Z,13.73
2023-01-19T12:17:03.296Z,13.07
2023-01-19T12:20:34.693Z,12.20
2023-01-19T12:24:08.133Z,10.55
2023-01-19T12:27:19.323Z,11.02
2023-01-19T12:30:29.470Z,11.35
2023-01-19T12:34:06.713Z,13.65
2023-01-19T12:37:36.351Z,13.80
2023-01-19T12:40:42.260Z,11.82
2023-01-19T12:43:57.288Z,12.20
2023-01-19T12:47:24.085Z,11.00
2023-01-19T12:54:32.699Z,11.35
2023-01-19T12:57:41.543Z,13.63
2023-01-19T13:00:51.336Z,12.05
2023-01-19T13:04:09.122Z,13.07
2023-01-19T13:07:13.613Z,15.00
2023-01-19T13:10:53.480Z,13.77
2023-01-19T13:13:58.679Z,14.95
2023-01-19T13:17:02.175Z,11.80
2023-01-19T13:20:23.447Z,12.97
2023-01-19T13:23:49.965Z,11.68
2023-01-19T13:26:52.108Z,12.73
2023-01-19T13:29:54.244Z,14.00
2023-01-19T13:33:03.317Z,11.05
2023-01-19T13:36:16.321Z,13.15
2023-01-19T13:39:50.210Z,12.05
2023-01-19T13:42:53.534Z,14.30
2023-01-19T13:46:40.994Z,12.05
2023-01-19T13:49:46.941Z,11.43
2023-01-19T13:52:51.302Z,10.40
2023-01-19T13:56:21.775Z,12.35
2023-01-19T13:59:24.022Z,13.63
2023-01-19T14:02:26.387Z,9.13
2023-01-19T14:05:28.766Z,13.32
2023-01-19T14:08:32.862Z,9.88
2023-01-19T14:11:35.287Z,10.70
2023-01-19T14:14:37.799Z,12.70
2023-01-19T14:17:41.459Z,12.48
2023-01-19T14:21:08.877Z,12.55
2023-01-19T14:24:18.914Z,14.00
2023-01-19T14:27:24.300Z,12.48
2023-01-19T14:30:26.891Z,11.98
2023-01-19T14:33:45.379Z,14.95
2023-01-19T14:36:50.857Z,14.02
2023-01-19T14:39:55.619Z,13.20
2023-01-19T14:43:05.681Z,15.48
2023-01-19T14:46:07.912Z,15.10
2023-01-19T14:49:18.670Z,13.18
2023-01-19T14:52:25.276Z,15.93
2023-01-19T14:55:43.286Z,14.23
2023-01-19T14:58:45.454Z,16.38
2023-01-19T15:01:47.772Z,16.35
2023-01-19T15:04:53.868Z,15.07
2023-01-19T15:07:56.012Z,14.45
2023-01-19T15:10:58.739Z,8.80
2023-01-19T15:14:01.507Z,15.38
2023-01-19T15:17:03.680Z,14.90
2023-01-19T15:20:14.198Z,16.42
2023-01-19T15:23:16.359Z,15.27
2023-01-19T15:26:20.846Z,15.83
2023-01-19T15:29:25.172Z,16.48
2023-01-19T15:32:27.320Z,17.60
2023-01-19T15:35:29.527Z,15.98
2023-01-19T15:38:31.655Z,17.80
2023-01-19T15:41:33.916Z,17.73
2023-01-19T15:44:36.105Z,16.67
2023-01-19T15:47:38.582Z,20.00
2023-01-19T15:50:43.012Z,16.58
2023-01-19T15:53:45.611Z,17.60
2023-01-19T15:56:47.920Z,18.83
2023-01-19T15:59:51.336Z,16.55
2023-01-19T16:02:53.530Z,18.50
2023-01-19T16:05:55.782Z,17.05
2023-01-19T16:09:01.440Z,20.10
2023-01-19T16:12:04.729Z,23.17
2023-01-19T16:15:07.992Z,17.88
2023-01-19T16:18:10.360Z,16.97
2023-01-19T16:21:12.616Z,19.73
2023-01-19T16:24:14.745Z,18.83
2023-01-19T16:27:16.917Z,21.03
2023-01-19T16:30:19.415Z,23.83
2023-01-19T16:33:21.763Z,21.80
2023-01-19T16:36:29.377Z,20.48
2023-01-19T16:39:31.503Z,22.80
2023-01-19T16:42:33.715Z,20.15
2023-01-19T16:45:44.296Z,22.38
2023-01-19T16:48:46.468Z,23.00
2023-01-19T16:51:49.860Z,18.25
2023-01-19T16:54:54.702Z,17.80
2023-01-19T16:57:56.883Z,20.27
2023-01-19T17:00:59.455Z,18.73
2023-01-19T17:04:01.821Z,20.25
2023-01-19T17:07:03.930Z,15.32
2023-01-19T17:10:06.948Z,11.57
2023-01-19T17:13:09.101Z,16.88
2023-01-19T17:16:11.325Z,14.00
2023-01-19T17:19:16.621Z,16.53
2023-01-19T17:22:19.067Z,15.07
2023-01-19T17:25:21.236Z,17.20
2023-01-19T17:28:23.899Z,15.00
2023-01-19T17:31:26.420Z,17.10
2023-01-19T17:34:28.688Z,17.20
2023-01-19T17:37:30.855Z,17.02
2023-01-19T17:40:33.028Z,14.18
2023-01-19T17:43:35.233Z,16.23
2023-01-19T17:46:38.144Z,15.70
2023-01-19T17:49:40.345Z,13.93
2023-01-19T17:52:42.601Z,15.38
2023-01-19T17:55:44.919Z,16.23
2023-01-19T17:58:47.300Z,16.67
2023-01-19T18:01:49.591Z,13.75
2023-01-19T18:04:54.743Z,17.00
2023-01-19T18:07:56.986Z,14.60
2023-01-19T18:11:00.273Z,14.68
2023-01-19T18:14:02.816Z,14.25
2023-01-19T18:17:05.129Z,14.10
2023-01-19T18:20:07.963Z,14.13
2023-01-19T18:23:13.504Z,17.75
2023-01-19T18:26:18.658Z,13.70
2023-01-19T18:29:20.806Z,15.33
2023-01-19T18:32:23.125Z,15.40
2023-01-19T18:35:25.617Z,15.15
2023-01-19T18:38:27.927Z,17.65
2023-01-19T18:41:30.666Z,13.23
2023-01-19T18:44:32.836Z,13.55
2023-01-19T18:47:35.102Z,13.10
2023-01-19T18:50:37.863Z,15.67
2023-01-19T18:53:40.588Z,12.70
2023-01-19T18:56:42.770Z,12.70
2023-01-19T18:59:46.651Z,15.97
2023-01-19T19:02:48.773Z,9.98
2023-01-19T19:05:50.931Z,12.35
2023-01-19T19:08:54.836Z,13.48
2023-01-19T19:11:57.127Z,13.23
2023-01-19T19:14:59.238Z,11.68
2023-01-19T19:18:01.378Z,13.05
2023-01-19T19:21:08.615Z,11.07
2023-01-19T19:24:13.610Z,11.80
2023-01-19T19:27:17.025Z,14.52
2023-01-19T19:30:20.714Z,11.37
2023-01-19T19:33:22.888Z,14.18
2023-01-19T19:36:26.528Z,15.95
2023-01-19T19:39:29.103Z,14.43
2023-01-19T19:42:31.389Z,12.43
2023-01-19T19:45:33.566Z,13.82
2023-01-19T19:48:38.876Z,15.60
2023-01-19T19:51:41.941Z,14.93
2023-01-19T19:54:45.125Z,16.48
2023-01-19T19:57:47.594Z,15.07
2023-01-19T20:00:50.088Z,14.07
2023-01-19T20:03:52.414Z,12.55
2023-01-19T20:06:54.553Z,13.85
2023-01-19T20:09:56.740Z,14.88
2023-01-19T20:12:58.921Z,15.32
2023-01-19T20:16:03.153Z,11.90
2023-01-19T20:19:05.541Z,13.98
2023-01-19T20:22:07.697Z,15.97
2023-01-19T20:25:09.881Z,14.55
2023-01-19T20:28:12.018Z,14.23
2023-01-19T20:31:16.740Z,16.47
2023-01-19T20:34:21.462Z,13.93
2023-01-19T20:37:23.656Z,14.70
2023-01-19T20:40:25.873Z,15.45
2023-01-19T20:43:28.930Z,14.52
2023-01-19T20:46:31.109Z,14.88
2023-01-19T20:49:33.233Z,14.65
2023-01-19T20:52:35.894Z,13.90
2023-01-19T20:55:38.092Z,14.63
2023-01-19T20:58:40.948Z,15.27
2023-01-19T21:01:43.873Z,14.93
2023-01-19T21:04:46.164Z,16.90
2023-01-19T21:07:48.905Z,15.15
2023-01-19T21:10:57.196Z,14.15
2023-01-19T21:13:59.397Z,15.70
2023-01-19T21:17:01.546Z,14.40
2023-01-19T21:20:04.041Z,14.77
2023-01-19T21:23:06.211Z,14.63
2023-01-19T21:26:08.575Z,15.20
2023-01-19T21:29:13.362Z,15.65
2023-01-19T21:32:15.555Z,14.47
2023-01-19T21:35:17.751Z,14.63
2023-01-19T21:38:20.497Z,13.60
2023-01-19T21:41:22.702Z,13.80
2023-01-19T21:44:24.915Z,15.30
2023-01-19T21:47:27.050Z,15.15
2023-01-19T21:50:29.141Z,13.50
2023-01-19T21:53:31.406Z,13.63
2023-01-19T21:56:34.352Z,14.35
2023-01-19T21:59:36.489Z,15.07
2023-01-19T22:02:39.338Z,14.20
2023-01-19T22:05:42.101Z,14.80
2023-01-19T22:08:46.468Z,14.13
2023-01-19T22:11:48.672Z,12.77
2023-01-19T22:14:50.878Z,15.68
2023-01-19T22:17:53.073Z,14.13
2023-01-19T22:20:55.361Z,15.00
2023-01-19T22:24:01.900Z,12.73
2023-01-19T22:27:04.071Z,16.55
2023-01-19T22:30:06.929Z,14.73
2023-01-19T22:33:09.052Z,15.23
2023-01-19T22:36:12.989Z,14.65
2023-01-19T22:39:15.177Z,16.02
2023-01-19T22:42:17.306Z,14.95
2023-01-19T22:45:19.842Z,15.13
2023-01-19T22:48:22.287Z,14.18
2023-01-19T22:51:25.682Z,13.55
2023-01-19T22:54:29.848Z,15.87
2023-01-19T22:57:35.732Z,15.18
2023-01-19T23:00:37.977Z,14.80
2023-01-19T23:03:40.548Z,14.07
2023-01-19T23:06:43.046Z,14.00
2023-01-19T23:09:45.492Z,12.57
2023-01-19T23:12:48.586Z,12.63
2023-01-19T23:15:50.753Z,11.75
2023-01-19T23:18:54.808Z,11.05
2023-01-19T23:21:57.014Z,13.75
2023-01-19T23:24:59.205Z,10.53
2023-01-19T23:28:01.315Z,11.13
2023-01-19T23:31:25.176Z,10.15
2023-01-19T23:34:27.434Z,10.57
2023-01-19T23:37:29.623Z,11.32
2023-01-19T23:40:31.920Z,10.93
2023-01-19T23:43:34.660Z,12.35
2023-01-19T23:46:37.053Z,10.43
2023-01-19T23:49:40.122Z,10.68
2023-01-19T23:52:42.230Z,11.23
2023-01-19T23:55:44.333Z,10.77
2023-01-19T23:58:48.484Z,11.48
